Brak ostrzeżeń pogodowych   -   Brak ostrzeżeń pogodowych

Raporty Pogodowe z Lotnisk

 

EPKK - Krakow/Balice, Poland
Odległość od stacji: Zd 81km
Aktualizacja: 17/12/2018 18:30
Mgła, Pochmurnie
Mgła, Pochmurnie
 Wiatr z ZdPdZa
Wiatr: ZdPdZa 7 km/h
Temperatura: -2°C
Temperatura Odczuwalna: -6°C
Punkt Rosy: -3°C
Wilgotność Względna: 93%
Ciśnienie Względne: 1024 hPa
Podsumowanie: Mgła
Chmury: Pochmurnie
Widoczność: 2 km
Szczegóły chmur: Małe zachmurzenie 701 m
Pochmurnie 1006 m
2018/12/17 17:30 EPKK 171730Z 25004KT 220V280 1600 BR FEW023 OVC033 M02/M03 Q1024
EPRZ - Rzeszow/Jasionka, Poland
Odległość od stacji: Ws 81km
Aktualizacja: 17/12/2018 18:30
Mgła, Pochmurnie
Mgła, Pochmurnie
 Wiatr z ZdPdZa
Wiatr: ZdPdZa 7 km/h
Temperatura: -2°C
Temperatura Odczuwalna: -6°C
Punkt Rosy: -4°C
Wilgotność Względna: 86%
Ciśnienie Względne: 1024 hPa
Podsumowanie: Mgła
Chmury: Pochmurnie
Widoczność: 4 km
Szczegóły chmur: Pochmurnie 792 m
2018/12/17 17:30 EPRZ 171730Z 25004KT 4000 BR OVC026 M02/M04 Q1024 R27/1///95
 
EPKT - Katowice/Pyrzowice, Poland
Odległość od stacji: ZdPnZd 141km
Aktualizacja: 17/12/2018 18:30
Mgła, Pochmurnie
Mgła, Pochmurnie
 Wiatr z PdZd
Wiatr: PdZd 13 km/h
Temperatura: -1°C
Temperatura Odczuwalna: -6°C
Punkt Rosy: -3°C
Wilgotność Względna: 86%
Ciśnienie Względne: 1023 hPa
Podsumowanie: Mgła
Chmury: Pochmurnie
Widoczność: 5 km
Szczegóły chmur: Pochmurnie 1006 m
2018/12/17 17:30 EPKT 171730Z 22007KT 200V290 5000 BR OVC033 M01/M03 Q1023
EPWA - Warsaw/Okecie, Poland
Odległość od stacji: Pn 240km
Aktualizacja: 17/12/2018 18:30
Częściowe zachmurzenie
Częściowe zachmurzenie
 Wiatr z Zd
Wiatr: Zd 7 km/h
Temperatura: -4°C
Temperatura Odczuwalna: -7°C
Punkt Rosy: -5°C
Wilgotność Względna: 93%
Ciśnienie Względne: 1024 hPa
Chmury: Częściowe zachmurzenie
Widoczność: 6 km
2018/12/17 17:30 EPWA 171730Z 27004KT 230V290 6000 NSC M04/M05 Q1024 R11/1///95 BECMG 5000 BR
 
EPLL - Lodz/Lublinek, Poland
Odległość od stacji: PnPnZd 218km
Aktualizacja: 17/12/2018 18:30
Mgła, Przeważnie pochmurno
Mgła, Przeważnie pochmurno
 Wiatr z calm
Wiatr: Cisza
Temperatura: -3°C
Punkt Rosy: -4°C
Wilgotność Względna: 93%
Ciśnienie Względne: 1023 hPa
Podsumowanie: Mgła
Chmury: Przeważnie pochmurno
Widoczność: 3 km
Szczegóły chmur: Przeważnie pochmurno 853 m
2018/12/17 17:30 EPLL 171730Z 00000KT 2700 BR BKN028 M03/M04 Q1023
EPWR - Wroclaw/Strachowice, Poland
Odległość od stacji: ZdPnZd 311km
Aktualizacja: 17/12/2018 18:30
Słabe opady śniegu, Deszcz, Mgła, Przeważnie pochmurno
Słabe opady śniegu, Deszcz, Mgła, Przeważnie pochmurno
 Wiatr z varies
Wiatr: varies 2 km/h
Temperatura: 1°C
Punkt Rosy: -1°C
Wilgotność Względna: 87%
Ciśnienie Względne: 1024 hPa
Podsumowanie: Słabe opady śniegu, Deszcz, Mgła
Chmury: Przeważnie pochmurno
Widoczność: 5 km
Szczegóły chmur: Częściowe zachmurzenie 640 m
Przeważnie pochmurno 823 m
2018/12/17 17:30 EPWR 171730Z VRB01KT 5000 -SNRA BR SCT021 BKN027 01/M01 Q1024
 
EPGD - Gdansk/Rebiechowo, Poland
Odległość od stacji: PnZd 553km
Aktualizacja: 17/12/2018 18:30
Mgła, Pochmurnie
Mgła, Pochmurnie
 Wiatr z Pd
Wiatr: Pd 6 km/h
Temperatura: -3°C
Punkt Rosy: -3°C
Wilgotność Względna: 100%
Ciśnienie Względne: 1023 hPa
Podsumowanie: Mgła
Chmury: Pochmurnie
Widoczność: 3 km
Szczegóły chmur: Małe zachmurzenie 579 m
Pochmurnie 853 m
2018/12/17 17:30 EPGD 171730Z 19003KT 150V220 3000 BR FEW019 OVC028 M03/M03 Q1023 R11/290095
EPSC - Szczecin/Goleniow, Poland
Odległość od stacji: ZdPnZd 635km
Aktualizacja: 17/12/2018 18:30
Pochmurnie
Pochmurnie
 Wiatr z PdWs
Wiatr: PdWs 9 km/h
Temperatura: -1°C
Temperatura Odczuwalna: -4°C
Punkt Rosy: -2°C
Wilgotność Względna: 93%
Ciśnienie Względne: 1023 hPa
Chmury: Pochmurnie
Widoczność: 8 km
Szczegóły chmur: Częściowe zachmurzenie 274 m
Pochmurnie 335 m
2018/12/17 17:30 EPSC 171730Z 14005KT 8000 SCT009 OVC011 M01/M02 Q1023